sensor_id;sensor_type;location;lat;lon;timestamp;P1;durP1;ratioP1;P2;durP2;ratioP2
57309;SDS011;43153;50.984;18.204;2023-12-20T00:01:50;28.20;;;13.60;;
57309;SDS011;43153;50.984;18.204;2023-12-20T00:04:21;28.80;;;13.50;;
57309;SDS011;43153;50.984;18.204;2023-12-20T00:06:50;26.20;;;12.50;;
57309;SDS011;43153;50.984;18.204;2023-12-20T00:09:20;27.80;;;13.10;;
57309;SDS011;43153;50.984;18.204;2023-12-20T00:11:46;25.50;;;12.30;;
57309;SDS011;43153;50.984;18.204;2023-12-20T00:14:13;25.80;;;12.60;;
57309;SDS011;43153;50.984;18.204;2023-12-20T00:16:39;28.60;;;14.30;;
57309;SDS011;43153;50.984;18.204;2023-12-20T00:19:11;28.90;;;13.80;;
57309;SDS011;43153;50.984;18.204;2023-12-20T00:21:38;25.50;;;14.10;;
57309;SDS011;43153;50.984;18.204;2023-12-20T00:24:06;25.80;;;12.60;;
57309;SDS011;43153;50.984;18.204;2023-12-20T00:26:32;28.30;;;12.10;;
57309;SDS011;43153;50.984;18.204;2023-12-20T00:29:04;26.50;;;12.90;;
57309;SDS011;43153;50.984;18.204;2023-12-20T00:31:29;27.40;;;12.30;;
57309;SDS011;43153;50.984;18.204;2023-12-20T00:33:55;26.50;;;13.10;;
57309;SDS011;43153;50.984;18.204;2023-12-20T00:36:21;24.80;;;12.20;;
57309;SDS011;43153;50.984;18.204;2023-12-20T00:38:49;25.00;;;12.80;;
57309;SDS011;43153;50.984;18.204;2023-12-20T00:41:16;22.70;;;12.50;;
57309;SDS011;43153;50.984;18.204;2023-12-20T00:43:42;31.30;;;14.70;;
57309;SDS011;43153;50.984;18.204;2023-12-20T00:46:18;26.70;;;13.20;;
57309;SDS011;43153;50.984;18.204;2023-12-20T00:48:44;32.10;;;15.80;;
57309;SDS011;43153;50.984;18.204;2023-12-20T00:51:12;28.30;;;13.90;;
57309;SDS011;43153;50.984;18.204;2023-12-20T00:53:43;27.80;;;14.00;;
57309;SDS011;43153;50.984;18.204;2023-12-20T00:56:09;33.60;;;15.30;;
57309;SDS011;43153;50.984;18.204;2023-12-20T00:58:39;26.40;;;13.50;;
57309;SDS011;43153;50.984;18.204;2023-12-20T01:01:07;22.80;;;13.00;;
57309;SDS011;43153;50.984;18.204;2023-12-20T01:03:35;28.90;;;15.10;;
57309;SDS011;43153;50.984;18.204;2023-12-20T01:06:04;25.50;;;14.30;;
57309;SDS011;43153;50.984;18.204;2023-12-20T01:08:37;25.20;;;15.40;;
57309;SDS011;43153;50.984;18.204;2023-12-20T01:11:06;27.20;;;13.20;;
57309;SDS011;43153;50.984;18.204;2023-12-20T01:13:39;25.30;;;13.70;;
57309;SDS011;43153;50.984;18.204;2023-12-20T01:16:10;25.80;;;13.70;;
57309;SDS011;43153;50.984;18.204;2023-12-20T01:18:40;23.90;;;13.70;;
57309;SDS011;43153;50.984;18.204;2023-12-20T01:21:10;28.70;;;16.40;;
57309;SDS011;43153;50.984;18.204;2023-12-20T01:23:43;35.90;;;15.70;;
57309;SDS011;43153;50.984;18.204;2023-12-20T01:26:17;29.30;;;14.00;;
57309;SDS011;43153;50.984;18.204;2023-12-20T01:28:49;23.30;;;13.30;;
57309;SDS011;43153;50.984;18.204;2023-12-20T01:31:27;29.20;;;15.70;;
57309;SDS011;43153;50.984;18.204;2023-12-20T01:33:55;27.30;;;14.90;;
57309;SDS011;43153;50.984;18.204;2023-12-20T01:36:22;24.80;;;13.20;;
57309;SDS011;43153;50.984;18.204;2023-12-20T01:38:49;28.90;;;15.10;;
57309;SDS011;43153;50.984;18.204;2023-12-20T01:41:15;30.20;;;17.00;;
57309;SDS011;43153;50.984;18.204;2023-12-20T01:43:46;30.90;;;15.20;;
57309;SDS011;43153;50.984;18.204;2023-12-20T01:46:23;28.30;;;15.60;;
57309;SDS011;43153;50.984;18.204;2023-12-20T01:48:50;32.80;;;18.60;;
57309;SDS011;43153;50.984;18.204;2023-12-20T01:51:26;25.00;;;13.90;;
57309;SDS011;43153;50.984;18.204;2023-12-20T01:54:00;26.60;;;13.70;;
57309;SDS011;43153;50.984;18.204;2023-12-20T01:56:30;32.50;;;15.70;;
57309;SDS011;43153;50.984;18.204;2023-12-20T01:58:57;26.80;;;13.80;;
57309;SDS011;43153;50.984;18.204;2023-12-20T02:01:24;33.70;;;16.80;;
57309;SDS011;43153;50.984;18.204;2023-12-20T02:03:50;27.60;;;14.50;;
57309;SDS011;43153;50.984;18.204;2023-12-20T02:06:29;30.30;;;15.20;;
57309;SDS011;43153;50.984;18.204;2023-12-20T02:09:04;26.50;;;15.10;;
57309;SDS011;43153;50.984;18.204;2023-12-20T02:11:32;28.50;;;15.00;;
57309;SDS011;43153;50.984;18.204;2023-12-20T02:14:00;31.00;;;15.70;;
57309;SDS011;43153;50.984;18.204;2023-12-20T02:16:27;28.70;;;15.20;;
57309;SDS011;43153;50.984;18.204;2023-12-20T02:18:54;30.80;;;15.50;;
57309;SDS011;43153;50.984;18.204;2023-12-20T02:21:25;31.80;;;14.90;;
57309;SDS011;43153;50.984;18.204;2023-12-20T02:24:03;32.60;;;15.50;;
57309;SDS011;43153;50.984;18.204;2023-12-20T02:26:28;33.50;;;17.30;;
57309;SDS011;43153;50.984;18.204;2023-12-20T02:29:05;37.90;;;17.60;;
57309;SDS011;43153;50.984;18.204;2023-12-20T02:31:32;31.10;;;16.10;;
57309;SDS011;43153;50.984;18.204;2023-12-20T02:34:06;37.10;;;18.00;;
57309;SDS011;43153;50.984;18.204;2023-12-20T02:36:41;32.40;;;15.90;;
57309;SDS011;43153;50.984;18.204;2023-12-20T02:39:13;32.40;;;16.40;;
57309;SDS011;43153;50.984;18.204;2023-12-20T02:41:43;32.00;;;17.80;;
57309;SDS011;43153;50.984;18.204;2023-12-20T02:44:12;33.80;;;17.10;;
57309;SDS011;43153;50.984;18.204;2023-12-20T02:46:47;31.70;;;18.10;;
57309;SDS011;43153;50.984;18.204;2023-12-20T02:49:15;35.00;;;16.50;;
57309;SDS011;43153;50.984;18.204;2023-12-20T02:51:50;29.80;;;15.30;;
57309;SDS011;43153;50.984;18.204;2023-12-20T02:54:24;37.20;;;19.10;;
57309;SDS011;43153;50.984;18.204;2023-12-20T02:56:54;34.20;;;17.50;;
57309;SDS011;43153;50.984;18.204;2023-12-20T02:59:23;35.40;;;19.00;;
57309;SDS011;43153;50.984;18.204;2023-12-20T03:01:51;35.50;;;17.70;;
57309;SDS011;43153;50.984;18.204;2023-12-20T03:04:20;38.30;;;19.80;;
57309;SDS011;43153;50.984;18.204;2023-12-20T03:06:45;36.30;;;18.00;;
57309;SDS011;43153;50.984;18.204;2023-12-20T03:09:11;34.10;;;18.60;;
57309;SDS011;43153;50.984;18.204;2023-12-20T03:11:37;37.30;;;19.70;;
57309;SDS011;43153;50.984;18.204;2023-12-20T03:14:08;36.30;;;18.50;;
57309;SDS011;43153;50.984;18.204;2023-12-20T03:16:34;36.90;;;18.60;;
57309;SDS011;43153;50.984;18.204;2023-12-20T03:19:00;36.50;;;20.20;;
57309;SDS011;43153;50.984;18.204;2023-12-20T03:21:32;42.20;;;20.70;;
57309;SDS011;43153;50.984;18.204;2023-12-20T03:24:03;38.40;;;21.10;;
57309;SDS011;43153;50.984;18.204;2023-12-20T03:26:31;36.90;;;19.60;;
57309;SDS011;43153;50.984;18.204;2023-12-20T03:29:05;40.80;;;21.50;;
57309;SDS011;43153;50.984;18.204;2023-12-20T03:31:31;47.30;;;22.10;;
57309;SDS011;43153;50.984;18.204;2023-12-20T03:34:16;40.90;;;20.30;;
57309;SDS011;43153;50.984;18.204;2023-12-20T03:36:52;35.80;;;20.00;;
57309;SDS011;43153;50.984;18.204;2023-12-20T03:39:18;33.70;;;19.40;;
57309;SDS011;43153;50.984;18.204;2023-12-20T03:41:48;39.20;;;21.60;;
57309;SDS011;43153;50.984;18.204;2023-12-20T03:44:16;37.80;;;21.20;;
57309;SDS011;43153;50.984;18.204;2023-12-20T03:46:53;37.30;;;21.00;;
57309;SDS011;43153;50.984;18.204;2023-12-20T03:49:25;41.10;;;21.50;;
57309;SDS011;43153;50.984;18.204;2023-12-20T03:51:52;41.40;;;22.10;;
57309;SDS011;43153;50.984;18.204;2023-12-20T03:54:22;37.80;;;20.90;;
57309;SDS011;43153;50.984;18.204;2023-12-20T03:56:59;42.60;;;22.40;;
57309;SDS011;43153;50.984;18.204;2023-12-20T03:59:34;51.70;;;24.70;;
57309;SDS011;43153;50.984;18.204;2023-12-20T04:02:02;43.70;;;23.00;;
57309;SDS011;43153;50.984;18.204;2023-12-20T04:04:38;43.60;;;21.70;;
57309;SDS011;43153;50.984;18.204;2023-12-20T04:07:07;48.00;;;25.20;;
57309;SDS011;43153;50.984;18.204;2023-12-20T04:09:40;47.90;;;24.60;;
57309;SDS011;43153;50.984;18.204;2023-12-20T04:12:15;46.80;;;25.00;;
57309;SDS011;43153;50.984;18.204;2023-12-20T04:14:48;56.90;;;26.80;;
57309;SDS011;43153;50.984;18.204;2023-12-20T04:17:21;45.40;;;24.60;;
57309;SDS011;43153;50.984;18.204;2023-12-20T04:19:50;43.90;;;23.70;;
57309;SDS011;43153;50.984;18.204;2023-12-20T04:22:18;46.10;;;24.90;;
57309;SDS011;43153;50.984;18.204;2023-12-20T04:24:55;55.60;;;29.30;;
57309;SDS011;43153;50.984;18.204;2023-12-20T04:27:27;51.30;;;27.90;;
57309;SDS011;43153;50.984;18.204;2023-12-20T04:29:55;69.70;;;34.80;;
57309;SDS011;43153;50.984;18.204;2023-12-20T04:32:21;65.50;;;32.70;;
57309;SDS011;43153;50.984;18.204;2023-12-20T04:34:50;81.40;;;36.60;;
57309;SDS011;43153;50.984;18.204;2023-12-20T04:37:18;60.00;;;35.10;;
57309;SDS011;43153;50.984;18.204;2023-12-20T04:39:53;62.00;;;34.20;;
57309;SDS011;43153;50.984;18.204;2023-12-20T04:42:27;58.80;;;32.20;;
57309;SDS011;43153;50.984;18.204;2023-12-20T04:45:07;77.70;;;36.80;;
57309;SDS011;43153;50.984;18.204;2023-12-20T04:47:38;69.50;;;35.10;;
57309;SDS011;43153;50.984;18.204;2023-12-20T04:50:10;63.20;;;30.70;;
57309;SDS011;43153;50.984;18.204;2023-12-20T04:52:38;54.80;;;30.70;;
57309;SDS011;43153;50.984;18.204;2023-12-20T04:55:04;55.50;;;29.40;;
57309;SDS011;43153;50.984;18.204;2023-12-20T04:57:31;62.40;;;32.20;;
57309;SDS011;43153;50.984;18.204;2023-12-20T04:59:57;53.30;;;31.00;;
57309;SDS011;43153;50.984;18.204;2023-12-20T05:02:22;47.30;;;25.00;;
57309;SDS011;43153;50.984;18.204;2023-12-20T05:04:48;38.90;;;20.70;;
57309;SDS011;43153;50.984;18.204;2023-12-20T05:07:14;43.80;;;22.90;;
57309;SDS011;43153;50.984;18.204;2023-12-20T05:09:40;38.80;;;22.40;;
57309;SDS011;43153;50.984;18.204;2023-12-20T05:12:20;40.80;;;22.80;;
57309;SDS011;43153;50.984;18.204;2023-12-20T05:14:51;38.70;;;21.30;;
57309;SDS011;43153;50.984;18.204;2023-12-20T05:17:18;40.90;;;21.30;;
57309;SDS011;43153;50.984;18.204;2023-12-20T05:19:47;48.90;;;25.10;;
57309;SDS011;43153;50.984;18.204;2023-12-20T05:22:13;50.80;;;27.30;;
57309;SDS011;43153;50.984;18.204;2023-12-20T05:24:42;41.30;;;22.60;;
57309;SDS011;43153;50.984;18.204;2023-12-20T05:27:11;34.60;;;18.50;;
57309;SDS011;43153;50.984;18.204;2023-12-20T05:29:40;29.20;;;14.90;;
57309;SDS011;43153;50.984;18.204;2023-12-20T05:32:06;27.40;;;13.90;;
57309;SDS011;43153;50.984;18.204;2023-12-20T05:34:34;31.70;;;15.20;;
57309;SDS011;43153;50.984;18.204;2023-12-20T05:37:07;27.20;;;14.30;;
57309;SDS011;43153;50.984;18.204;2023-12-20T05:39:40;31.00;;;14.90;;
57309;SDS011;43153;50.984;18.204;2023-12-20T05:42:07;26.60;;;12.30;;
57309;SDS011;43153;50.984;18.204;2023-12-20T05:44:39;19.80;;;9.20;;
57309;SDS011;43153;50.984;18.204;2023-12-20T05:47:14;18.10;;;8.10;;
57309;SDS011;43153;50.984;18.204;2023-12-20T05:49:46;13.90;;;6.50;;
57309;SDS011;43153;50.984;18.204;2023-12-20T05:52:16;17.00;;;7.90;;
57309;SDS011;43153;50.984;18.204;2023-12-20T05:54:50;15.60;;;7.50;;
57309;SDS011;43153;50.984;18.204;2023-12-20T05:57:22;15.50;;;6.30;;
57309;SDS011;43153;50.984;18.204;2023-12-20T05:59:53;14.30;;;6.40;;
57309;SDS011;43153;50.984;18.204;2023-12-20T06:02:21;12.60;;;5.90;;
57309;SDS011;43153;50.984;18.204;2023-12-20T06:04:48;11.30;;;3.90;;
57309;SDS011;43153;50.984;18.204;2023-12-20T06:07:16;11.00;;;4.00;;
57309;SDS011;43153;50.984;18.204;2023-12-20T06:09:45;9.20;;;3.80;;
57309;SDS011;43153;50.984;18.204;2023-12-20T06:12:11;9.80;;;4.00;;
57309;SDS011;43153;50.984;18.204;2023-12-20T06:14:39;8.20;;;3.40;;
57309;SDS011;43153;50.984;18.204;2023-12-20T06:17:05;11.70;;;4.30;;
57309;SDS011;43153;50.984;18.204;2023-12-20T06:19:32;12.50;;;4.90;;
57309;SDS011;43153;50.984;18.204;2023-12-20T06:21:57;14.00;;;4.90;;
57309;SDS011;43153;50.984;18.204;2023-12-20T06:24:23;15.70;;;5.70;;
57309;SDS011;43153;50.984;18.204;2023-12-20T06:26:53;15.70;;;7.00;;
57309;SDS011;43153;50.984;18.204;2023-12-20T06:29:23;11.80;;;4.90;;
57309;SDS011;43153;50.984;18.204;2023-12-20T06:31:51;9.80;;;3.70;;
57309;SDS011;43153;50.984;18.204;2023-12-20T06:34:19;10.70;;;4.00;;
57309;SDS011;43153;50.984;18.204;2023-12-20T06:36:47;8.30;;;3.20;;
57309;SDS011;43153;50.984;18.204;2023-12-20T06:39:15;8.70;;;2.80;;
57309;SDS011;43153;50.984;18.204;2023-12-20T06:41:44;6.90;;;2.20;;
57309;SDS011;43153;50.984;18.204;2023-12-20T06:44:11;6.10;;;2.00;;
57309;SDS011;43153;50.984;18.204;2023-12-20T06:46:46;8.40;;;2.60;;
57309;SDS011;43153;50.984;18.204;2023-12-20T06:49:14;7.50;;;2.70;;
57309;SDS011;43153;50.984;18.204;2023-12-20T06:51:44;5.70;;;2.00;;
57309;SDS011;43153;50.984;18.204;2023-12-20T06:54:11;6.20;;;1.50;;
57309;SDS011;43153;50.984;18.204;2023-12-20T06:56:37;6.80;;;2.50;;
57309;SDS011;43153;50.984;18.204;2023-12-20T06:59:07;8.00;;;2.30;;
57309;SDS011;43153;50.984;18.204;2023-12-20T07:02:08;8.90;;;2.80;;
57309;SDS011;43153;50.984;18.204;2023-12-20T07:04:39;8.90;;;3.50;;
57309;SDS011;43153;50.984;18.204;2023-12-20T07:07:10;10.80;;;3.70;;
57309;SDS011;43153;50.984;18.204;2023-12-20T07:09:37;12.60;;;4.80;;
57309;SDS011;43153;50.984;18.204;2023-12-20T07:12:04;11.50;;;4.50;;
57309;SDS011;43153;50.984;18.204;2023-12-20T07:14:33;13.90;;;5.60;;
57309;SDS011;43153;50.984;18.204;2023-12-20T07:17:05;20.90;;;8.10;;
57309;SDS011;43153;50.984;18.204;2023-12-20T07:19:48;24.00;;;13.00;;
57309;SDS011;43153;50.984;18.204;2023-12-20T07:22:17;28.60;;;13.30;;
57309;SDS011;43153;50.984;18.204;2023-12-20T07:24:43;39.40;;;20.10;;
57309;SDS011;43153;50.984;18.204;2023-12-20T07:27:09;16.50;;;7.50;;
57309;SDS011;43153;50.984;18.204;2023-12-20T07:29:36;14.60;;;6.00;;
57309;SDS011;43153;50.984;18.204;2023-12-20T07:32:20;9.30;;;3.30;;
57309;SDS011;43153;50.984;18.204;2023-12-20T07:34:46;8.40;;;3.50;;
57309;SDS011;43153;50.984;18.204;2023-12-20T07:37:14;9.20;;;3.80;;
57309;SDS011;43153;50.984;18.204;2023-12-20T07:39:48;7.30;;;2.90;;
57309;SDS011;43153;50.984;18.204;2023-12-20T07:42:16;11.80;;;3.90;;
57309;SDS011;43153;50.984;18.204;2023-12-20T07:44:45;16.80;;;8.60;;
57309;SDS011;43153;50.984;18.204;2023-12-20T07:47:10;33.40;;;17.20;;
57309;SDS011;43153;50.984;18.204;2023-12-20T07:49:41;27.20;;;13.10;;
57309;SDS011;43153;50.984;18.204;2023-12-20T07:52:07;27.60;;;14.20;;
57309;SDS011;43153;50.984;18.204;2023-12-20T07:54:33;17.10;;;7.60;;
57309;SDS011;43153;50.984;18.204;2023-12-20T07:56:59;9.50;;;3.80;;
57309;SDS011;43153;50.984;18.204;2023-12-20T07:59:25;9.40;;;3.30;;
57309;SDS011;43153;50.984;18.204;2023-12-20T08:01:51;8.60;;;3.00;;
57309;SDS011;43153;50.984;18.204;2023-12-20T08:04:17;6.40;;;2.80;;
57309;SDS011;43153;50.984;18.204;2023-12-20T08:06:44;8.10;;;3.10;;
57309;SDS011;43153;50.984;18.204;2023-12-20T08:09:12;16.00;;;5.90;;
57309;SDS011;43153;50.984;18.204;2023-12-20T08:11:38;22.40;;;9.90;;
57309;SDS011;43153;50.984;18.204;2023-12-20T08:14:04;18.30;;;8.40;;
57309;SDS011;43153;50.984;18.204;2023-12-20T08:16:31;22.50;;;13.40;;
57309;SDS011;43153;50.984;18.204;2023-12-20T08:18:58;27.10;;;14.80;;
57309;SDS011;43153;50.984;18.204;2023-12-20T08:21:29;25.50;;;13.60;;
57309;SDS011;43153;50.984;18.204;2023-12-20T08:23:57;31.90;;;17.10;;
57309;SDS011;43153;50.984;18.204;2023-12-20T08:26:22;35.50;;;16.70;;
57309;SDS011;43153;50.984;18.204;2023-12-20T08:28:51;25.00;;;11.90;;
57309;SDS011;43153;50.984;18.204;2023-12-20T08:31:17;23.60;;;12.50;;
57309;SDS011;43153;50.984;18.204;2023-12-20T08:33:46;27.10;;;13.90;;
57309;SDS011;43153;50.984;18.204;2023-12-20T08:36:14;34.80;;;18.90;;
57309;SDS011;43153;50.984;18.204;2023-12-20T08:38:45;42.90;;;22.70;;
57309;SDS011;43153;50.984;18.204;2023-12-20T08:41:11;40.90;;;21.10;;
57309;SDS011;43153;50.984;18.204;2023-12-20T08:43:37;49.00;;;20.70;;
57309;SDS011;43153;50.984;18.204;2023-12-20T08:46:05;43.50;;;18.10;;
57309;SDS011;43153;50.984;18.204;2023-12-20T08:48:31;25.60;;;11.10;;
57309;SDS011;43153;50.984;18.204;2023-12-20T08:50:57;19.60;;;8.50;;
57309;SDS011;43153;50.984;18.204;2023-12-20T08:53:23;19.00;;;9.70;;
57309;SDS011;43153;50.984;18.204;2023-12-20T08:55:49;15.20;;;8.10;;
57309;SDS011;43153;50.984;18.204;2023-12-20T08:58:14;21.30;;;10.60;;
57309;SDS011;43153;50.984;18.204;2023-12-20T09:00:40;21.60;;;10.90;;
57309;SDS011;43153;50.984;18.204;2023-12-20T09:03:08;19.60;;;10.40;;
57309;SDS011;43153;50.984;18.204;2023-12-20T09:05:37;21.40;;;12.00;;
57309;SDS011;43153;50.984;18.204;2023-12-20T09:08:02;20.60;;;10.10;;
57309;SDS011;43153;50.984;18.204;2023-12-20T09:10:30;26.70;;;12.30;;
57309;SDS011;43153;50.984;18.204;2023-12-20T09:12:55;24.30;;;10.80;;
57309;SDS011;43153;50.984;18.204;2023-12-20T09:15:23;19.50;;;11.40;;
57309;SDS011;43153;50.984;18.204;2023-12-20T09:17:51;26.50;;;13.20;;
57309;SDS011;43153;50.984;18.204;2023-12-20T09:20:17;31.40;;;17.10;;
57309;SDS011;43153;50.984;18.204;2023-12-20T09:22:44;28.50;;;14.40;;
57309;SDS011;43153;50.984;18.204;2023-12-20T09:25:10;26.40;;;12.90;;
57309;SDS011;43153;50.984;18.204;2023-12-20T09:27:38;34.50;;;16.20;;
57309;SDS011;43153;50.984;18.204;2023-12-20T09:30:04;23.70;;;13.60;;
57309;SDS011;43153;50.984;18.204;2023-12-20T09:32:31;21.30;;;9.80;;
57309;SDS011;43153;50.984;18.204;2023-12-20T09:35:01;21.20;;;11.70;;
57309;SDS011;43153;50.984;18.204;2023-12-20T09:37:28;17.00;;;8.40;;
57309;SDS011;43153;50.984;18.204;2023-12-20T09:39:54;17.60;;;8.40;;
57309;SDS011;43153;50.984;18.204;2023-12-20T10:22:33;10.00;;;3.50;;
57309;SDS011;43153;50.984;18.204;2023-12-20T10:25:01;8.70;;;2.90;;
57309;SDS011;43153;50.984;18.204;2023-12-20T10:27:29;6.50;;;2.30;;
57309;SDS011;43153;50.984;18.204;2023-12-20T10:29:58;9.30;;;3.40;;
57309;SDS011;43153;50.984;18.204;2023-12-20T10:32:25;9.20;;;2.90;;
57309;SDS011;43153;50.984;18.204;2023-12-20T10:34:52;9.00;;;4.10;;
57309;SDS011;43153;50.984;18.204;2023-12-20T10:37:19;7.50;;;3.70;;
57309;SDS011;43153;50.984;18.204;2023-12-20T10:39:48;6.20;;;2.50;;
57309;SDS011;43153;50.984;18.204;2023-12-20T10:42:18;8.80;;;3.70;;
57309;SDS011;43153;50.984;18.204;2023-12-20T10:44:51;9.50;;;4.30;;
57309;SDS011;43153;50.984;18.204;2023-12-20T10:47:25;10.50;;;3.70;;
57309;SDS011;43153;50.984;18.204;2023-12-20T10:49:52;9.10;;;3.90;;
57309;SDS011;43153;50.984;18.204;2023-12-20T10:52:19;9.90;;;4.10;;
57309;SDS011;43153;50.984;18.204;2023-12-20T10:54:46;11.70;;;5.50;;
57309;SDS011;43153;50.984;18.204;2023-12-20T10:57:11;12.90;;;5.10;;
57309;SDS011;43153;50.984;18.204;2023-12-20T10:59:37;10.50;;;5.10;;
57309;SDS011;43153;50.984;18.204;2023-12-20T11:02:08;12.90;;;5.90;;
57309;SDS011;43153;50.984;18.204;2023-12-20T11:04:41;13.20;;;5.30;;
57309;SDS011;43153;50.984;18.204;2023-12-20T11:07:17;16.80;;;8.10;;
57309;SDS011;43153;50.984;18.204;2023-12-20T11:09:50;16.60;;;5.90;;
57309;SDS011;43153;50.984;18.204;2023-12-20T11:12:39;16.80;;;7.40;;
57309;SDS011;43153;50.984;18.204;2023-12-20T11:15:13;10.60;;;5.50;;
57309;SDS011;43153;50.984;18.204;2023-12-20T11:17:44;13.40;;;6.10;;
57309;SDS011;43153;50.984;18.204;2023-12-20T11:20:11;12.50;;;6.10;;
57309;SDS011;43153;50.984;18.204;2023-12-20T11:22:38;11.80;;;5.60;;
57309;SDS011;43153;50.984;18.204;2023-12-20T11:25:10;11.40;;;5.10;;
57309;SDS011;43153;50.984;18.204;2023-12-20T11:27:36;10.40;;;5.00;;
57309;SDS011;43153;50.984;18.204;2023-12-20T11:30:07;11.40;;;5.70;;
57309;SDS011;43153;50.984;18.204;2023-12-20T11:32:36;11.10;;;5.10;;
57309;SDS011;43153;50.984;18.204;2023-12-20T11:37:32;11.60;;;5.10;;
57309;SDS011;43153;50.984;18.204;2023-12-20T11:40:22;11.80;;;6.60;;
57309;SDS011;43153;50.984;18.204;2023-12-20T11:42:48;11.90;;;5.40;;
57309;SDS011;43153;50.984;18.204;2023-12-20T11:45:21;15.00;;;7.50;;
57309;SDS011;43153;50.984;18.204;2023-12-20T11:47:48;12.90;;;5.10;;
57309;SDS011;43153;50.984;18.204;2023-12-20T11:50:19;14.60;;;6.80;;
57309;SDS011;43153;50.984;18.204;2023-12-20T11:52:45;17.20;;;7.00;;
57309;SDS011;43153;50.984;18.204;2023-12-20T11:55:12;13.70;;;6.50;;
57309;SDS011;43153;50.984;18.204;2023-12-20T11:57:38;12.50;;;5.30;;
57309;SDS011;43153;50.984;18.204;2023-12-20T12:00:06;10.50;;;5.00;;
57309;SDS011;43153;50.984;18.204;2023-12-20T12:02:34;15.00;;;5.60;;
57309;SDS011;43153;50.984;18.204;2023-12-20T12:05:00;17.00;;;6.20;;
57309;SDS011;43153;50.984;18.204;2023-12-20T12:07:27;14.50;;;6.00;;
57309;SDS011;43153;50.984;18.204;2023-12-20T12:09:53;10.70;;;5.10;;
57309;SDS011;43153;50.984;18.204;2023-12-20T12:12:19;9.20;;;4.00;;
57309;SDS011;43153;50.984;18.204;2023-12-20T12:14:45;15.60;;;6.10;;
57309;SDS011;43153;50.984;18.204;2023-12-20T12:17:11;12.10;;;4.80;;
57309;SDS011;43153;50.984;18.204;2023-12-20T12:19:40;9.70;;;5.30;;
57309;SDS011;43153;50.984;18.204;2023-12-20T12:22:07;11.70;;;5.00;;
57309;SDS011;43153;50.984;18.204;2023-12-20T12:24:36;10.30;;;4.30;;
57309;SDS011;43153;50.984;18.204;2023-12-20T12:27:03;15.50;;;5.20;;
57309;SDS011;43153;50.984;18.204;2023-12-20T12:29:32;11.90;;;5.00;;
57309;SDS011;43153;50.984;18.204;2023-12-20T12:31:59;11.70;;;4.50;;
57309;SDS011;43153;50.984;18.204;2023-12-20T12:34:27;14.10;;;4.90;;
57309;SDS011;43153;50.984;18.204;2023-12-20T12:36:53;9.90;;;4.20;;
57309;SDS011;43153;50.984;18.204;2023-12-20T12:39:20;11.70;;;3.90;;
57309;SDS011;43153;50.984;18.204;2023-12-20T12:41:53;11.10;;;4.00;;
57309;SDS011;43153;50.984;18.204;2023-12-20T12:44:21;9.80;;;3.30;;
57309;SDS011;43153;50.984;18.204;2023-12-20T12:46:56;8.80;;;3.40;;
57309;SDS011;43153;50.984;18.204;2023-12-20T12:49:23;12.10;;;3.60;;
57309;SDS011;43153;50.984;18.204;2023-12-20T12:51:48;14.90;;;5.70;;
57309;SDS011;43153;50.984;18.204;2023-12-20T12:54:16;17.40;;;7.70;;
57309;SDS011;43153;50.984;18.204;2023-12-20T12:56:43;14.60;;;5.50;;
57309;SDS011;43153;50.984;18.204;2023-12-20T12:59:10;12.80;;;4.40;;
57309;SDS011;43153;50.984;18.204;2023-12-20T13:01:36;14.10;;;6.60;;
57309;SDS011;43153;50.984;18.204;2023-12-20T13:04:02;16.50;;;8.20;;
57309;SDS011;43153;50.984;18.204;2023-12-20T13:09:00;21.60;;;5.90;;
57309;SDS011;43153;50.984;18.204;2023-12-20T13:11:27;14.10;;;5.70;;
57309;SDS011;43153;50.984;18.204;2023-12-20T13:13:52;12.70;;;5.10;;
57309;SDS011;43153;50.984;18.204;2023-12-20T13:16:19;11.50;;;4.20;;
57309;SDS011;43153;50.984;18.204;2023-12-20T13:18:46;8.40;;;3.10;;
57309;SDS011;43153;50.984;18.204;2023-12-20T13:21:13;6.00;;;2.40;;
57309;SDS011;43153;50.984;18.204;2023-12-20T13:23:38;7.90;;;2.70;;
57309;SDS011;43153;50.984;18.204;2023-12-20T13:26:07;8.40;;;3.00;;
57309;SDS011;43153;50.984;18.204;2023-12-20T13:31:03;11.50;;;3.10;;
57309;SDS011;43153;50.984;18.204;2023-12-20T13:33:35;7.90;;;2.40;;
57309;SDS011;43153;50.984;18.204;2023-12-20T13:36:06;8.50;;;3.10;;
57309;SDS011;43153;50.984;18.204;2023-12-20T13:38:32;19.40;;;4.60;;
57309;SDS011;43153;50.984;18.204;2023-12-20T13:40:59;7.90;;;3.20;;
57309;SDS011;43153;50.984;18.204;2023-12-20T13:43:25;12.60;;;4.00;;
57309;SDS011;43153;50.984;18.204;2023-12-20T13:45:52;11.60;;;4.70;;
57309;SDS011;43153;50.984;18.204;2023-12-20T13:48:18;14.00;;;5.00;;
57309;SDS011;43153;50.984;18.204;2023-12-20T13:50:44;13.50;;;5.30;;
57309;SDS011;43153;50.984;18.204;2023-12-20T13:53:10;12.30;;;4.10;;
57309;SDS011;43153;50.984;18.204;2023-12-20T13:55:38;11.20;;;3.40;;
57309;SDS011;43153;50.984;18.204;2023-12-20T13:58:38;11.60;;;4.40;;
57309;SDS011;43153;50.984;18.204;2023-12-20T14:01:06;12.40;;;3.80;;
57309;SDS011;43153;50.984;18.204;2023-12-20T14:03:32;10.40;;;4.10;;
57309;SDS011;43153;50.984;18.204;2023-12-20T14:06:00;9.60;;;3.00;;
57309;SDS011;43153;50.984;18.204;2023-12-20T14:08:30;9.90;;;2.40;;
57309;SDS011;43153;50.984;18.204;2023-12-20T14:11:02;8.80;;;3.30;;
57309;SDS011;43153;50.984;18.204;2023-12-20T14:13:29;10.80;;;2.90;;
57309;SDS011;43153;50.984;18.204;2023-12-20T14:15:59;9.10;;;3.30;;
57309;SDS011;43153;50.984;18.204;2023-12-20T14:18:26;12.30;;;3.00;;
57309;SDS011;43153;50.984;18.204;2023-12-20T14:20:56;11.10;;;3.40;;
57309;SDS011;43153;50.984;18.204;2023-12-20T14:23:33;8.80;;;3.20;;
57309;SDS011;43153;50.984;18.204;2023-12-20T14:26:07;9.90;;;3.50;;
57309;SDS011;43153;50.984;18.204;2023-12-20T14:31:06;8.30;;;2.80;;
57309;SDS011;43153;50.984;18.204;2023-12-20T14:33:38;9.70;;;3.30;;
57309;SDS011;43153;50.984;18.204;2023-12-20T14:36:07;11.20;;;4.20;;
57309;SDS011;43153;50.984;18.204;2023-12-20T14:38:34;14.10;;;3.70;;
57309;SDS011;43153;50.984;18.204;2023-12-20T14:41:00;9.20;;;4.20;;
57309;SDS011;43153;50.984;18.204;2023-12-20T14:43:29;11.20;;;4.30;;
57309;SDS011;43153;50.984;18.204;2023-12-20T14:45:55;15.00;;;4.20;;
57309;SDS011;43153;50.984;18.204;2023-12-20T14:48:22;9.90;;;3.90;;
57309;SDS011;43153;50.984;18.204;2023-12-20T14:50:50;13.70;;;5.10;;
57309;SDS011;43153;50.984;18.204;2023-12-20T14:53:16;9.40;;;4.10;;
57309;SDS011;43153;50.984;18.204;2023-12-20T14:55:44;11.90;;;5.00;;
57309;SDS011;43153;50.984;18.204;2023-12-20T14:58:12;10.50;;;4.40;;
57309;SDS011;43153;50.984;18.204;2023-12-20T15:00:48;14.00;;;5.10;;
57309;SDS011;43153;50.984;18.204;2023-12-20T15:03:15;10.10;;;4.60;;
57309;SDS011;43153;50.984;18.204;2023-12-20T15:05:45;11.80;;;5.20;;
57309;SDS011;43153;50.984;18.204;2023-12-20T15:08:16;11.70;;;4.00;;
57309;SDS011;43153;50.984;18.204;2023-12-20T15:10:50;12.50;;;4.30;;
57309;SDS011;43153;50.984;18.204;2023-12-20T15:13:16;10.20;;;4.00;;
57309;SDS011;43153;50.984;18.204;2023-12-20T15:15:43;11.30;;;5.10;;
57309;SDS011;43153;50.984;18.204;2023-12-20T15:18:09;15.40;;;5.40;;
57309;SDS011;43153;50.984;18.204;2023-12-20T15:20:46;15.20;;;5.50;;